Terminal Aerodrome Forecast
Issued by NWS Wilmington, OH

Current Version | Previous Version | Graphics & Text | Print | Product List | Glossary On
Versions: 1 2 3 4 5 6 7 8 9 10 11 12 13 14 15
000
FTUS41 KILN 162300
TAFCMH
TAF
KCMH 162333Z 1700/1724 26014G22KT P6SM OVC012
      TEMPO 1700/1701 5SM -SHRA BR
     FM171300 27014KT P6SM OVC018=

USA.gov is the U.S. government's official web portal to all federal, state and local government web resources and services.